Time;durP1;ratioP1;P1;durP2;ratioP2;P2;SDS_P1;SDS_P2;PMS_P1;PMS_P2;Temp;Humidity;BMP_temperature;BMP_pressure;BME280_temperature;BME280_humidity;BME280_pressure;Samples;Min_cycle;Max_cycle;Signal;HPM_P1;HPM_P2
2022/05/26 00:01:19;;;;;;;4.80;3.13;;;13.60;99.90;;;;;;5060513;28;20124;-72
2022/05/26 00:03:46;;;;;;;7.13;5.00;;;13.70;99.90;;;;;;5067637;28;20064;-72
2022/05/26 00:06:15;;;;;;;12.18;5.45;;;13.70;99.90;;;;;;5068487;28;20125;-72
2022/05/26 00:08:41;;;;;;;9.48;6.03;;;13.70;99.90;;;;;;5062071;28;20049;-72
2022/05/26 00:11:12;;;;;;;13.90;6.75;;;13.70;99.90;;;;;;5066689;28;20048;-72
2022/05/26 00:13:40;;;;;;;12.50;7.68;;;13.80;99.90;;;;;;5064647;28;20382;-72
2022/05/26 00:16:06;;;;;;;14.50;7.88;;;13.80;99.90;;;;;;5065827;28;20457;-72
2022/05/26 00:18:31;;;;;;;11.90;8.32;;;13.80;99.90;;;;;;5062492;28;20052;-72
2022/05/26 00:20:57;;;;;;;13.18;8.00;;;13.90;99.90;;;;;;5063812;28;20070;-72
2022/05/26 00:23:23;;;;;;;16.58;9.43;;;13.90;99.90;;;;;;5094792;28;20478;-72
2022/05/26 00:25:49;;;;;;;16.52;9.48;;;13.90;99.90;;;;;;5067757;28;20041;-72
2022/05/26 00:28:14;;;;;;;14.65;9.05;;;13.90;99.90;;;;;;5059395;28;20041;-72
2022/05/26 00:30:40;;;;;;;13.95;10.65;;;13.90;99.90;;;;;;5063913;28;20041;-72
2022/05/26 00:33:07;;;;;;;17.70;9.48;;;13.90;99.90;;;;;;5065896;28;20047;-72
2022/05/26 00:35:34;;;;;;;15.05;9.13;;;14.00;99.90;;;;;;5067265;28;20051;-72
2022/05/26 00:38:02;;;;;;;16.08;9.00;;;14.00;99.90;;;;;;5064003;28;20636;-72
2022/05/26 00:40:28;;;;;;;21.60;10.70;;;14.00;99.90;;;;;;5060379;28;20045;-72
2022/05/26 00:42:54;;;;;;;24.48;10.27;;;14.00;99.90;;;;;;5064756;28;20085;-72
2022/05/26 00:45:19;;;;;;;20.90;10.30;;;14.00;99.90;;;;;;5063772;28;20083;-72
2022/05/26 00:47:47;;;;;;;20.02;9.75;;;14.00;99.90;;;;;;5062955;28;20037;-72
2022/05/26 00:50:17;;;;;;;20.58;10.35;;;14.00;99.90;;;;;;5062357;28;20522;-72
2022/05/26 00:52:47;;;;;;;26.88;12.50;;;14.10;99.90;;;;;;5061718;28;20068;-72
2022/05/26 00:55:18;;;;;;;22.02;10.82;;;14.10;99.90;;;;;;5095350;27;20033;-73
2022/05/26 00:57:48;;;;;;;20.02;11.68;;;14.10;99.90;;;;;;5062009;28;20123;-72
2022/05/26 01:00:19;;;;;;;26.70;11.85;;;14.10;99.90;;;;;;5057929;28;20040;-72
2022/05/26 01:02:52;;;;;;;29.25;11.18;;;14.10;99.90;;;;;;5065344;28;20707;-73
2022/05/26 01:05:23;;;;;;;29.58;11.35;;;14.10;99.90;;;;;;5060400;28;20047;-72
2022/05/26 01:07:48;;;;;;;27.67;9.85;;;14.10;99.90;;;;;;5060686;28;20051;-72
2022/05/26 01:10:15;;;;;;;26.50;11.05;;;14.10;99.90;;;;;;5060332;28;20036;-73
2022/05/26 01:12:41;;;;;;;34.05;11.38;;;14.20;99.90;;;;;;5059816;28;20106;-72
2022/05/26 01:15:11;;;;;;;28.38;11.23;;;14.20;99.90;;;;;;5065014;28;20453;-73
2022/05/26 01:18:14;;;;;;;32.35;11.27;;;14.10;99.90;;;;;;5061406;28;20535;-73
2022/05/26 01:20:59;;;;;;;33.80;11.18;;;14.20;99.90;;;;;;5060556;28;20115;-73
2022/05/26 01:23:46;;;;;;;38.08;12.00;;;14.20;99.90;;;;;;5060293;28;20090;-73
2022/05/26 01:26:24;;;;;;;30.83;10.60;;;14.20;99.90;;;;;;5064034;28;20033;-72
2022/05/26 01:29:31;;;;;;;30.98;11.10;;;14.30;99.90;;;;;;5066458;28;20048;-73
2022/05/26 01:32:08;;;;;;;38.28;10.05;;;14.20;99.90;;;;;;5064974;28;20065;-72
2022/05/26 01:34:46;;;;;;;33.85;10.27;;;14.20;99.90;;;;;;5089863;28;20257;-72
2022/05/26 01:37:42;;;;;;;40.78;10.05;;;14.20;99.90;;;;;;5062187;28;20044;-72
2022/05/26 01:40:12;;;;;;;36.08;9.75;;;14.20;99.90;;;;;;5062637;28;20036;-73
2022/05/26 01:42:51;;;;;;;37.28;10.23;;;14.20;99.90;;;;;;5060918;28;20150;-73
2022/05/26 01:45:22;;;;;;;38.03;10.43;;;14.20;99.90;;;;;;5061537;28;20049;-72
2022/05/26 01:48:07;;;;;;;40.65;11.38;;;14.20;99.90;;;;;;5067709;28;20375;-73
2022/05/26 01:50:51;;;;;;;34.88;9.75;;;14.20;99.90;;;;;;5059287;28;20123;-73
2022/05/26 01:53:38;;;;;;;45.10;10.45;;;14.20;99.90;;;;;;5078375;28;20111;-72
2022/05/26 01:56:16;;;;;;;43.03;9.85;;;14.20;99.90;;;;;;5062579;28;20056;-73
2022/05/26 01:58:59;;;;;;;33.90;9.73;;;14.20;99.90;;;;;;5062111;28;20044;-73
2022/05/26 02:01:28;;;;;;;35.13;10.13;;;14.20;99.90;;;;;;5096138;27;20071;-72
2022/05/26 02:03:57;;;;;;;29.63;8.95;;;14.20;99.90;;;;;;5060390;28;20689;-72
2022/05/26 02:06:29;;;;;;;36.33;9.30;;;14.20;99.90;;;;;;5062621;28;20410;-72
2022/05/26 02:09:20;;;;;;;35.55;9.32;;;14.20;99.90;;;;;;5060330;28;20060;-73
2022/05/26 02:11:59;;;;;;;48.03;10.95;;;14.20;99.90;;;;;;5085879;28;20530;-72
2022/05/26 02:14:46;;;;;;;42.67;10.00;;;14.20;99.90;;;;;;5062285;28;20249;-72
2022/05/26 02:17:22;;;;;;;40.95;10.02;;;14.20;99.90;;;;;;5062200;28;21128;-73
2022/05/26 02:20:04;;;;;;;33.42;9.48;;;14.20;99.90;;;;;;5060533;28;20028;-72
2022/05/26 02:22:42;;;;;;;39.38;10.70;;;14.30;99.90;;;;;;5057500;28;20068;-72
2022/05/26 02:25:10;;;;;;;31.58;9.45;;;14.20;99.90;;;;;;5059911;28;20040;-73
2022/05/26 02:27:37;;;;;;;41.42;10.65;;;14.20;99.90;;;;;;5056693;28;20041;-73
2022/05/26 02:30:07;;;;;;;38.60;9.75;;;14.30;99.90;;;;;;5091029;28;20167;-72
2022/05/26 02:32:53;;;;;;;48.67;9.77;;;14.20;99.90;;;;;;5063436;28;20102;-73
2022/05/26 02:35:31;;;;;;;37.25;10.63;;;14.20;99.90;;;;;;5059654;28;20538;-73
2022/05/26 02:38:04;;;;;;;36.80;9.00;;;14.20;99.90;;;;;;5063043;28;20455;-73
2022/05/26 02:40:30;;;;;;;42.10;10.80;;;14.20;99.90;;;;;;5062115;28;20479;-73
2022/05/26 02:43:03;;;;;;;36.55;9.02;;;14.30;99.90;;;;;;5062703;28;20116;-73
2022/05/26 02:45:40;;;;;;;43.38;9.68;;;14.20;99.90;;;;;;5058892;28;20460;-72
2022/05/26 02:48:38;;;;;;;39.88;10.00;;;14.30;99.90;;;;;;5060488;28;20040;-73
2022/05/26 02:51:15;;;;;;;38.60;10.02;;;14.20;99.90;;;;;;5050004;28;20059;-72
2022/05/26 02:53:44;;;;;;;42.95;10.98;;;14.30;99.90;;;;;;5059453;28;20057;-73
2022/05/26 02:56:27;;;;;;;40.38;9.73;;;14.20;99.90;;;;;;5060767;28;20040;-72
2022/05/26 02:59:04;;;;;;;38.30;8.73;;;14.20;99.90;;;;;;5062839;28;20048;-73
2022/05/26 03:01:38;;;;;;;36.45;7.30;;;14.20;99.90;;;;;;5061225;28;20051;-73
2022/05/26 03:04:27;;;;;;;38.35;8.52;;;14.20;99.90;;;;;;5062721;28;20044;-72
2022/05/26 03:06:58;;;;;;;32.40;8.07;;;14.20;99.90;;;;;;5061733;28;20036;-72
2022/05/26 03:09:25;;;;;;;31.98;8.30;;;14.20;99.90;;;;;;5061349;28;20040;-73
2022/05/26 03:11:54;;;;;;;34.22;8.52;;;14.20;99.90;;;;;;5060875;28;20663;-72
2022/05/26 03:14:21;;;;;;;38.33;9.35;;;14.20;99.90;;;;;;5058534;28;20084;-73
2022/05/26 03:16:47;;;;;;;33.47;7.70;;;14.20;99.90;;;;;;5043924;28;20083;-72
2022/05/26 03:19:13;;;;;;;31.40;8.38;;;14.20;99.90;;;;;;5059120;28;20059;-72
2022/05/26 03:21:39;;;;;;;34.13;8.27;;;14.20;99.90;;;;;;5061542;28;20036;-73
2022/05/26 03:24:05;;;;;;;36.35;8.25;;;14.10;99.90;;;;;;5044667;28;20056;-73
2022/05/26 03:26:31;;;;;;;35.45;7.80;;;14.10;99.90;;;;;;5058252;28;20402;-72
2022/05/26 03:28:57;;;;;;;25.60;7.40;;;14.20;99.90;;;;;;5057220;28;20043;-73
2022/05/26 03:31:23;;;;;;;27.27;6.13;;;14.20;99.90;;;;;;5059695;28;20032;-73
2022/05/26 03:42:03;;;;;;;31.27;6.38;;;14.10;99.90;;;;;;5067079;28;20644;-72
2022/05/26 03:44:32;;;;;;;29.90;6.60;;;14.10;99.90;;;;;;5061963;28;20029;-73
2022/05/26 03:46:58;;;;;;;34.90;7.07;;;14.10;99.90;;;;;;5067701;28;20024;-73
2022/05/26 03:49:24;;;;;;;30.58;6.43;;;14.00;99.90;;;;;;5065711;28;20073;-73
2022/05/26 03:51:50;;;;;;;37.58;6.75;;;14.00;99.90;;;;;;5065986;28;20044;-73
2022/05/26 03:54:16;;;;;;;25.38;5.38;;;14.10;99.90;;;;;;5061931;28;20483;-73
2022/05/26 03:56:42;;;;;;;37.22;6.88;;;14.00;99.90;;;;;;5064636;28;20047;-72
2022/05/26 03:59:07;;;;;;;26.13;5.68;;;14.00;99.90;;;;;;5063328;28;20624;-73
2022/05/26 04:01:33;;;;;;;22.80;5.10;;;14.00;99.90;;;;;;5062305;28;20089;-72
2022/05/26 04:03:58;;;;;;;26.08;6.10;;;14.00;99.90;;;;;;5061806;28;20037;-73
2022/05/26 04:06:25;;;;;;;29.35;6.05;;;14.10;99.90;;;;;;5047303;28;20044;-72
2022/05/26 04:08:51;;;;;;;30.27;5.93;;;14.20;99.90;;;;;;5063770;28;20119;-72
2022/05/26 04:11:17;;;;;;;22.83;5.90;;;14.30;99.90;;;;;;5069268;28;20112;-73
2022/05/26 04:13:42;;;;;;;24.63;5.70;;;14.50;99.90;;;;;;5071394;28;20043;-73
2022/05/26 04:16:08;;;;;;;20.40;4.55;;;15.20;99.90;;;;;;5065543;28;20052;-72
2022/05/26 04:18:34;;;;;;;19.55;4.45;;;15.30;99.90;;;;;;5068764;28;20119;-73
2022/05/26 04:21:05;;;;;;;15.48;4.43;;;15.20;99.90;;;;;;5067829;28;20550;-72
2022/05/26 04:23:30;;;;;;;22.20;5.50;;;15.00;99.90;;;;;;5069643;28;20052;-73
2022/05/26 04:25:56;;;;;;;12.88;3.72;;;14.90;99.90;;;;;;5062315;28;20040;-73
2022/05/26 04:28:21;;;;;;;21.50;5.03;;;14.80;99.90;;;;;;5063139;28;20024;-72
2022/05/26 04:30:47;;;;;;;13.23;3.25;;;15.30;99.90;;;;;;5051154;28;20048;-72
2022/05/26 04:33:13;;;;;;;12.45;2.65;;;16.30;99.90;;;;;;5062864;28;20048;-72
2022/05/26 04:35:38;;;;;;;13.27;2.50;;;17.40;99.90;;;;;;5063867;28;20044;-72
2022/05/26 04:38:04;;;;;;;14.90;2.80;;;17.90;99.90;;;;;;5063315;28;20040;-72
2022/05/26 04:40:30;;;;;;;17.20;3.17;;;18.80;99.90;;;;;;5067153;28;20083;-72
2022/05/26 04:42:55;;;;;;;15.18;2.65;;;19.20;99.90;;;;;;5063900;28;20041;-72
2022/05/26 04:45:21;;;;;;;9.05;1.90;;;19.10;99.90;;;;;;5093726;28;20044;-72
2022/05/26 04:47:47;;;;;;;12.55;2.08;;;18.60;99.90;;;;;;5062326;28;20044;-72
2022/05/26 04:50:13;;;;;;;12.07;3.38;;;18.20;99.90;;;;;;5060470;28;20059;-72
2022/05/26 04:52:39;;;;;;;9.98;1.60;;;17.90;99.90;;;;;;5064867;28;20101;-72
2022/05/26 04:55:05;;;;;;;11.80;2.30;;;17.60;99.90;;;;;;5064438;28;20041;-72
2022/05/26 04:57:32;;;;;;;13.45;2.20;;;17.50;99.90;;;;;;5064864;28;20100;-72
2022/05/26 04:59:57;;;;;;;7.72;1.92;;;17.20;99.90;;;;;;5060834;28;20037;-72
2022/05/26 05:02:23;;;;;;;12.15;2.05;;;17.20;99.90;;;;;;5061138;28;20395;-72
2022/05/26 05:04:50;;;;;;;9.18;1.48;;;17.50;99.90;;;;;;5062044;28;20032;-72
2022/05/26 05:07:17;;;;;;;11.52;2.83;;;17.50;99.90;;;;;;5060616;28;20045;-72
2022/05/26 05:09:44;;;;;;;8.80;1.70;;;17.80;99.90;;;;;;5066105;28;20043;-72
2022/05/26 05:12:19;;;;;;;10.10;2.20;;;18.70;99.90;;;;;;5062764;28;20039;-72
2022/05/26 05:14:48;;;;;;;9.18;1.65;;;20.30;99.90;;;;;;5061810;28;20055;-72
2022/05/26 05:17:16;;;;;;;8.27;2.10;;;21.80;99.90;;;;;;5061412;28;20072;-72
2022/05/26 05:19:42;;;;;;;7.72;1.27;;;23.30;99.90;;;;;;5093905;28;20044;-72
2022/05/26 05:22:11;;;;;;;8.30;0.90;;;24.40;99.90;;;;;;5063768;28;20049;-72
2022/05/26 05:24:52;;;;;;;8.48;1.42;;;25.50;99.90;;;;;;5063111;28;20036;-72
2022/05/26 05:27:18;;;;;;;7.78;1.25;;;26.00;99.90;;;;;;5064688;28;20111;-72
2022/05/26 05:29:47;;;;;;;7.22;1.02;;;25.70;99.90;;;;;;5063254;28;20119;-72
2022/05/26 05:32:28;;;;;;;6.93;1.17;;;25.00;99.90;;;;;;5064771;28;20136;-72
2022/05/26 05:35:06;;;;;;;7.07;1.20;;;25.00;99.90;;;;;;5063647;28;20040;-72
2022/05/26 05:37:33;;;;;;;8.38;1.60;;;24.70;99.90;;;;;;5063515;28;20040;-72
2022/05/26 05:40:00;;;;;;;9.63;1.65;;;23.80;99.90;;;;;;5061743;28;20127;-72
2022/05/26 05:42:26;;;;;;;5.88;1.50;;;22.90;99.90;;;;;;5061677;28;20052;-72
2022/05/26 05:44:52;;;;;;;5.53;0.82;;;22.30;99.90;;;;;;5062736;28;20028;-72
2022/05/26 05:47:17;;;;;;;8.20;1.00;;;21.80;99.90;;;;;;5061335;28;20036;-72
2022/05/26 05:49:44;;;;;;;7.13;0.90;;;21.40;99.90;;;;;;5060199;28;20136;-72
2022/05/26 05:52:12;;;;;;;6.28;0.93;;;20.80;99.90;;;;;;5061271;28;20048;-72
2022/05/26 05:54:38;;;;;;;6.22;1.30;;;20.70;99.90;;;;;;5058605;28;20045;-72
2022/05/26 05:57:05;;;;;;;3.08;0.80;;;20.50;99.90;;;;;;5063859;28;20037;-73
2022/05/26 05:59:31;;;;;;;6.38;0.85;;;20.30;99.90;;;;;;5090055;28;20061;-73
2022/05/26 06:01:56;;;;;;;6.30;0.70;;;20.10;99.90;;;;;;5059068;28;20041;-73
2022/05/26 06:04:23;;;;;;;6.63;0.77;;;19.80;99.90;;;;;;5055712;28;20045;-73
2022/05/26 06:06:49;;;;;;;5.20;1.10;;;19.50;99.90;;;;;;5058645;28;20622;-73
2022/05/26 06:09:16;;;;;;;4.10;0.80;;;19.20;99.90;;;;;;5057867;28;20041;-72
2022/05/26 06:11:42;;;;;;;3.67;0.80;;;19.00;99.90;;;;;;5091090;28;20051;-73
2022/05/26 06:14:08;;;;;;;7.40;1.13;;;18.70;99.90;;;;;;5057677;28;20089;-73
2022/05/26 06:16:34;;;;;;;7.32;0.88;;;18.60;99.90;;;;;;5063720;28;20028;-72
2022/05/26 06:19:00;;;;;;;4.43;0.60;;;18.30;99.90;;;;;;5063020;28;20044;-73
2022/05/26 06:21:26;;;;;;;8.25;1.10;;;18.20;99.90;;;;;;5065054;28;20041;-73
2022/05/26 06:23:56;;;;;;;4.60;0.73;;;18.30;99.90;;;;;;5063820;28;20053;-73
2022/05/26 06:26:26;;;;;;;4.55;0.80;;;18.60;99.90;;;;;;5058071;28;20048;-73
2022/05/26 06:31:37;;;;;;;6.63;0.70;;;19.10;99.90;;;;;;5059661;28;20127;-73
2022/05/26 06:39:31;;;;;;;4.88;1.08;;;19.70;99.90;;;;;;5061562;28;20052;-73
2022/05/26 06:42:06;;;;;;;10.73;1.63;;;19.50;99.90;;;;;;5056862;28;20444;-73
2022/05/26 06:44:40;;;;;;;7.07;0.95;;;19.30;99.90;;;;;;5039035;28;20072;-73
2022/05/26 06:47:07;;;;;;;7.78;1.02;;;19.10;99.90;;;;;;5057034;28;20036;-72
2022/05/26 06:49:35;;;;;;;6.57;1.90;;;18.80;99.90;;;;;;5057734;28;20077;-77
2022/05/26 06:52:02;;;;;;;3.53;0.55;;;18.60;99.90;;;;;;5090424;28;20083;-76
2022/05/26 06:54:37;;;;;;;3.35;0.57;;;18.50;99.90;;;;;;5059319;28;20033;-74
2022/05/26 06:57:04;;;;;;;4.13;0.57;;;18.40;99.90;;;;;;5062074;28;20040;-74
2022/05/26 06:59:30;;;;;;;5.25;0.65;;;18.20;99.90;;;;;;5056158;28;20483;-74
2022/05/26 07:01:55;;;;;;;4.20;0.88;;;18.20;99.90;;;;;;5066036;28;20033;-74
2022/05/26 07:04:22;;;;;;;4.43;1.00;;;18.20;99.90;;;;;;5063160;28;20516;-73
2022/05/26 07:06:50;;;;;;;6.80;0.63;;;18.10;99.90;;;;;;5061694;28;20029;-73
2022/05/26 07:09:17;;;;;;;5.22;1.20;;;18.20;99.90;;;;;;5062333;28;20091;-73
2022/05/26 07:11:43;;;;;;;5.80;0.55;;;18.30;99.90;;;;;;5068574;28;20052;-73
2022/05/26 07:14:08;;;;;;;3.47;0.70;;;18.40;99.90;;;;;;5064330;28;20126;-73
2022/05/26 07:16:34;;;;;;;8.15;1.30;;;18.60;99.90;;;;;;5063060;28;20047;-73
2022/05/26 07:19:00;;;;;;;8.00;1.65;;;18.60;99.90;;;;;;5057491;28;20025;-73
2022/05/26 07:21:25;;;;;;;4.88;0.60;;;18.60;99.90;;;;;;5061478;28;20041;-73
2022/05/26 07:23:52;;;;;;;3.97;0.75;;;18.60;99.90;;;;;;5058124;28;20504;-73
2022/05/26 07:26:18;;;;;;;3.90;0.90;;;18.70;99.90;;;;;;5059323;28;20127;-73
2022/05/26 07:28:44;;;;;;;6.18;1.10;;;18.70;99.90;;;;;;5059895;28;20060;-73
2022/05/26 07:31:12;;;;;;;7.10;0.68;;;18.80;99.90;;;;;;5057242;28;20040;-73
2022/05/26 07:33:38;;;;;;;4.68;1.25;;;18.70;99.90;;;;;;5059823;28;20055;-73
2022/05/26 07:36:04;;;;;;;3.88;0.93;;;18.70;99.90;;;;;;5060498;28;20041;-73
2022/05/26 07:41:25;;;;;;;4.63;0.52;;;18.70;99.90;;;;;;5058912;28;20049;-73
2022/05/26 07:43:57;;;;;;;3.92;0.63;;;18.70;99.90;;;;;;5060588;28;20041;-72
2022/05/26 07:46:24;;;;;;;4.65;0.63;;;18.70;99.90;;;;;;5057350;28;20385;-72
2022/05/26 07:48:50;;;;;;;5.40;0.98;;;18.60;99.90;;;;;;5058612;28;20676;-73
2022/05/26 07:51:19;;;;;;;6.05;0.75;;;18.60;99.90;;;;;;5058595;28;20518;-73
2022/05/26 07:53:46;;;;;;;5.68;0.60;;;18.70;99.90;;;;;;5062350;28;20032;-73
2022/05/26 07:56:11;;;;;;;7.72;1.27;;;18.70;99.90;;;;;;5062105;28;20052;-73
2022/05/26 07:58:37;;;;;;;3.97;0.40;;;18.80;99.90;;;;;;5057465;28;20052;-73
2022/05/26 08:01:04;;;;;;;5.15;0.60;;;18.80;99.90;;;;;;5058079;28;20552;-73
2022/05/26 08:03:30;;;;;;;3.85;0.80;;;18.90;99.90;;;;;;5063433;28;20064;-73
2022/05/26 08:05:56;;;;;;;4.10;0.52;;;19.00;99.90;;;;;;5061724;28;20465;-73
2022/05/26 08:08:22;;;;;;;5.97;1.02;;;19.20;99.90;;;;;;5058753;28;20163;-72
2022/05/26 08:10:48;;;;;;;6.35;0.68;;;19.20;99.90;;;;;;5054884;28;20049;-73
2022/05/26 08:13:14;;;;;;;4.05;0.65;;;19.40;99.90;;;;;;5058818;28;20029;-73
2022/05/26 08:15:42;;;;;;;4.82;0.80;;;19.60;99.90;;;;;;5058720;28;20028;-73
2022/05/26 08:18:08;;;;;;;8.23;0.60;;;19.90;99.90;;;;;;5062972;28;20037;-72
2022/05/26 08:20:34;;;;;;;8.07;0.77;;;20.00;99.90;;;;;;5061006;28;20045;-73
2022/05/26 08:23:00;;;;;;;4.93;0.60;;;20.40;99.90;;;;;;5057990;28;20578;-73
2022/05/26 08:25:26;;;;;;;3.95;1.27;;;20.50;99.90;;;;;;5067963;28;20165;-72
2022/05/26 08:27:52;;;;;;;4.50;1.20;;;20.80;99.90;;;;;;5069112;28;20044;-72
2022/05/26 08:30:18;;;;;;;3.92;1.20;;;21.00;99.90;;;;;;5065234;28;20197;-72
2022/05/26 08:32:44;;;;;;;7.90;1.58;;;21.00;99.90;;;;;;5064324;28;20051;-73
2022/05/26 08:35:11;;;;;;;4.40;0.50;;;21.30;99.90;;;;;;5064828;28;20036;-72
2022/05/26 08:37:36;;;;;;;7.03;0.60;;;21.50;99.90;;;;;;5064288;28;20543;-73
2022/05/26 08:40:03;;;;;;;3.72;0.60;;;21.60;99.90;;;;;;5062824;28;20033;-73
2022/05/26 08:42:32;;;;;;;3.20;0.57;;;21.80;99.90;;;;;;5099224;27;20049;-73
2022/05/26 08:45:02;;;;;;;4.53;0.65;;;21.70;99.90;;;;;;5063380;28;20541;-72
2022/05/26 08:47:46;;;;;;;3.67;0.57;;;21.80;99.90;;;;;;5065809;28;20040;-72
2022/05/26 08:50:20;;;;;;;5.03;0.82;;;21.70;99.90;;;;;;5044000;28;20052;-72
2022/05/26 08:53:01;;;;;;;9.38;0.60;;;21.60;99.90;;;;;;5068885;28;20626;-72
2022/05/26 08:55:35;;;;;;;6.18;0.60;;;21.60;99.90;;;;;;5069712;28;20475;-72
2022/05/26 08:58:14;;;;;;;2.97;0.57;;;21.50;99.90;;;;;;5096814;27;20140;-72
2022/05/26 09:00:41;;;;;;;4.35;0.70;;;21.60;99.90;;;;;;5064014;28;20115;-72
2022/05/26 09:03:28;;;;;;;5.88;0.52;;;21.70;99.90;;;;;;5062770;28;20113;-72
2022/05/26 09:06:17;;;;;;;3.55;0.70;;;21.70;99.90;;;;;;5066677;28;20040;-72
2022/05/26 09:14:00;;;;;;;4.63;1.02;;;21.30;99.90;;;;;;5058870;28;20076;-73
2022/05/26 09:16:27;;;;;;;6.88;0.90;;;21.20;99.90;;;;;;5059137;28;20047;-72
2022/05/26 09:19:12;;;;;;;2.28;0.40;;;21.00;99.90;;;;;;5065033;28;20053;-72
2022/05/26 09:21:39;;;;;;;2.55;0.40;;;20.70;99.90;;;;;;5060964;28;20562;-72
2022/05/26 09:24:26;;;;;;;2.03;0.30;;;20.70;99.90;;;;;;5067406;28;20045;-72
2022/05/26 09:27:01;;;;;;;5.20;0.57;;;20.80;99.90;;;;;;5065050;28;20041;-72
2022/05/26 09:29:33;;;;;;;3.60;0.68;;;20.90;99.90;;;;;;5063347;28;20494;-72
2022/05/26 09:32:01;;;;;;;3.25;0.75;;;21.00;99.90;;;;;;5062026;28;20076;-72
2022/05/26 09:34:32;;;;;;;4.15;0.57;;;21.10;99.90;;;;;;5068183;28;20471;-72
2022/05/26 09:37:00;;;;;;;3.30;0.40;;;21.20;99.90;;;;;;5065944;28;20028;-72
2022/05/26 09:39:39;;;;;;;8.13;0.82;;;21.20;99.90;;;;;;5059147;28;20105;-72
2022/05/26 09:42:16;;;;;;;14.98;1.20;;;21.40;99.90;;;;;;5089614;28;20875;-71
2022/05/26 09:44:54;;;;;;;5.47;0.40;;;21.40;99.90;;;;;;5062890;28;20094;-71
2022/05/26 09:47:26;;;;;;;1.77;0.40;;;21.60;99.90;;;;;;5058799;28;20124;-71
2022/05/26 09:49:57;;;;;;;2.15;0.50;;;21.60;99.90;;;;;;5061780;28;20060;-71
2022/05/26 09:52:28;;;;;;;2.25;0.30;;;21.60;99.90;;;;;;5067735;28;20075;-71
2022/05/26 09:55:20;;;;;;;2.53;0.40;;;21.50;99.90;;;;;;5062561;28;20048;-71
2022/05/26 09:57:47;;;;;;;7.47;1.40;;;21.40;99.90;;;;;;5063236;28;20033;-71
2022/05/26 10:00:36;;;;;;;1.70;0.40;;;21.40;99.90;;;;;;5061530;28;20044;-71
2022/05/26 10:03:26;;;;;;;4.15;0.50;;;21.20;99.90;;;;;;5064401;28;20045;-71
2022/05/26 10:06:17;;;;;;;1.92;0.40;;;21.00;99.90;;;;;;5063245;28;20052;-71
2022/05/26 10:09:08;;;;;;;3.83;0.65;;;20.70;99.90;;;;;;5064856;28;20037;-71
2022/05/26 10:11:33;;;;;;;2.03;0.47;;;20.50;99.90;;;;;;5064433;28;20047;-71
2022/05/26 10:14:22;;;;;;;6.13;0.85;;;20.50;99.90;;;;;;5058757;28;20060;-71
2022/05/26 10:16:57;;;;;;;2.70;0.65;;;20.30;99.90;;;;;;5060840;28;20041;-71
2022/05/26 10:19:28;;;;;;;6.47;0.87;;;20.20;99.90;;;;;;5062178;28;20041;-71
2022/05/26 10:22:18;;;;;;;4.50;0.40;;;20.00;99.90;;;;;;5061248;28;20037;-70
2022/05/26 10:25:05;;;;;;;5.28;0.60;;;20.30;99.90;;;;;;5062478;28;20037;-70
2022/05/26 10:27:37;;;;;;;3.20;0.45;;;20.30;99.90;;;;;;5061221;28;20044;-70
2022/05/26 10:30:27;;;;;;;3.90;0.63;;;20.40;99.90;;;;;;5062420;28;20039;-71
2022/05/26 10:33:11;;;;;;;3.65;0.60;;;20.40;99.90;;;;;;5057067;28;20126;-71
2022/05/26 10:35:59;;;;;;;5.95;0.95;;;20.40;99.90;;;;;;5062239;28;20399;-70
2022/05/26 10:38:42;;;;;;;3.65;1.10;;;20.50;99.90;;;;;;5065567;28;20037;-70
2022/05/26 10:41:10;;;;;;;3.10;0.57;;;20.40;99.90;;;;;;5057294;28;20041;-70
2022/05/26 10:44:16;;;;;;;4.57;0.60;;;20.40;99.90;;;;;;5060813;28;20079;-70
2022/05/26 10:47:05;;;;;;;4.20;0.93;;;20.10;99.90;;;;;;5029845;28;20077;-70
2022/05/26 10:49:46;;;;;;;4.22;0.90;;;19.90;99.90;;;;;;5083177;28;20057;-70
2022/05/26 10:52:24;;;;;;;4.57;0.70;;;19.70;99.90;;;;;;5062441;28;20429;-71
2022/05/26 10:54:54;;;;;;;4.43;0.75;;;19.40;99.90;;;;;;5063125;28;20040;-71
2022/05/26 10:57:37;;;;;;;8.30;1.08;;;19.10;99.90;;;;;;5060926;28;20055;-71
2022/05/26 11:00:09;;;;;;;3.70;0.70;;;19.00;99.90;;;;;;5062794;28;20044;-70
2022/05/26 11:02:50;;;;;;;4.53;0.77;;;19.20;99.90;;;;;;5061683;28;20048;-71
2022/05/26 11:05:48;;;;;;;5.80;0.90;;;19.50;99.90;;;;;;5060900;28;20036;-71
2022/05/26 11:08:40;;;;;;;9.30;1.25;;;19.90;99.90;;;;;;5058836;28;20390;-70
2022/05/26 11:11:24;;;;;;;8.43;0.98;;;19.80;99.90;;;;;;5059842;28;20079;-71
2022/05/26 11:17:23;;;;;;;6.45;0.80;;;19.70;99.90;;;;;;5042163;28;20050;-71
2022/05/26 11:20:08;;;;;;;4.38;0.90;;;19.60;99.90;;;;;;5063323;28;20089;-71
2022/05/26 11:22:34;;;;;;;5.30;1.27;;;19.40;99.90;;;;;;5058253;28;20045;-71
2022/05/26 11:25:00;;;;;;;9.00;1.30;;;19.30;99.90;;;;;;5064706;28;20036;-70
2022/05/26 11:27:37;;;;;;;4.68;0.68;;;19.20;99.90;;;;;;5057954;28;20036;-71
2022/05/26 11:36:07;;;;;;;6.55;0.63;;;19.30;99.90;;;;;;5087742;28;20524;-71
2022/05/26 11:38:28;;;;;;;6.20;1.23;;;19.10;99.90;;;;;;5058635;28;20511;-71
2022/05/26 11:41:05;;;;;;;3.95;0.85;;;19.00;99.90;;;;;;5058634;28;20044;-70
2022/05/26 11:43:45;;;;;;;6.03;1.27;;;19.10;99.90;;;;;;5058579;28;20048;-70
2022/05/26 11:46:32;;;;;;;4.63;1.00;;;19.30;99.90;;;;;;5057119;28;20124;-71
2022/05/26 11:48:57;;;;;;;7.30;1.52;;;19.30;99.90;;;;;;5061770;28;20041;-71
2022/05/26 11:51:41;;;;;;;4.30;0.88;;;19.30;99.90;;;;;;5060751;28;20047;-70
2022/05/26 11:54:48;;;;;;;6.20;0.77;;;19.10;99.90;;;;;;5065189;28;20624;-71
2022/05/26 11:57:34;;;;;;;4.75;0.60;;;19.10;99.90;;;;;;5065521;28;20044;-71
2022/05/26 12:00:18;;;;;;;4.05;0.40;;;19.10;99.90;;;;;;5066263;28;20041;-71
2022/05/26 12:02:45;;;;;;;7.32;0.95;;;19.10;99.90;;;;;;5091591;28;20045;-70
2022/05/26 12:05:45;;;;;;;7.43;0.88;;;19.10;99.90;;;;;;5061805;28;20069;-71
2022/05/26 12:08:28;;;;;;;4.60;0.65;;;19.10;99.90;;;;;;5067048;28;20052;-70
2022/05/26 12:11:00;;;;;;;3.20;0.60;;;19.10;99.90;;;;;;5060845;28;20082;-71
2022/05/26 12:13:27;;;;;;;5.40;0.88;;;19.10;99.90;;;;;;5060189;28;20047;-70
2022/05/26 12:16:14;;;;;;;6.32;0.50;;;19.20;99.90;;;;;;5059015;28;20126;-71
2022/05/26 12:19:02;;;;;;;4.32;0.80;;;19.30;99.90;;;;;;5065016;28;20073;-71
2022/05/26 12:21:28;;;;;;;5.55;1.23;;;19.40;99.90;;;;;;5061550;28;20051;-70
2022/05/26 12:23:58;;;;;;;6.95;1.10;;;19.70;99.90;;;;;;5053712;28;20397;-70
2022/05/26 12:26:47;;;;;;;5.47;0.80;;;19.90;99.90;;;;;;5062924;28;20033;-71
2022/05/26 12:29:41;;;;;;;4.18;0.50;;;19.90;99.90;;;;;;5097339;27;20058;-71
2022/05/26 12:32:20;;;;;;;4.38;0.63;;;19.90;99.90;;;;;;5062817;28;20043;-71
2022/05/26 12:35:01;;;;;;;4.10;0.70;;;19.90;99.90;;;;;;5063119;28;20048;-70
2022/05/26 12:37:47;;;;;;;2.33;0.55;;;19.80;99.90;;;;;;5065850;28;20087;-71
2022/05/26 12:40:22;;;;;;;;;;;19.70;99.90;;;;;;5066190;28;20183;-71
2022/05/26 12:43:33;;;;;;;5.63;0.70;;;19.70;99.90;;;;;;5074965;28;19928;-70
2022/05/26 12:46:28;;;;;;;5.72;0.60;;;19.80;99.90;;;;;;5065097;28;20044;-71
2022/05/26 12:49:04;;;;;;;7.03;0.88;;;19.80;99.90;;;;;;5067307;28;20028;-70
2022/05/26 12:51:36;;;;;;;4.40;1.42;;;19.90;99.90;;;;;;5061312;28;20040;-71
2022/05/26 12:54:06;;;;;;;4.07;0.70;;;20.00;99.90;;;;;;5064551;28;20040;-71
2022/05/26 12:56:31;;;;;;;6.15;0.80;;;20.00;99.90;;;;;;5062765;28;20889;-70
2022/05/26 12:58:59;;;;;;;9.65;1.33;;;20.00;99.90;;;;;;5069119;28;20041;-70
2022/05/26 13:01:27;;;;;;;6.00;0.60;;;20.10;99.90;;;;;;5060070;28;20182;-71
2022/05/26 13:04:08;;;;;;;5.75;0.80;;;20.10;99.90;;;;;;5061824;28;20040;-70
2022/05/26 13:06:38;;;;;;;6.05;1.38;;;20.00;99.90;;;;;;5061979;28;20056;-71
2022/05/26 13:09:07;;;;;;;9.88;1.67;;;20.00;99.90;;;;;;5063274;28;20033;-71
2022/05/26 13:12:03;;;;;;;7.22;0.93;;;20.00;99.90;;;;;;5058598;28;20052;-71
2022/05/26 13:14:35;;;;;;;;;;;20.20;99.90;;;;;;5064762;28;20060;-71
2022/05/26 13:17:15;;;;;;;5.00;1.02;;;20.20;99.90;;;;;;5097506;27;19970;-71
2022/05/26 13:19:46;;;;;;;4.55;0.88;;;20.20;99.90;;;;;;5067306;28;20041;-71
2022/05/26 13:22:15;;;;;;;8.50;0.88;;;20.20;99.90;;;;;;5091377;28;20552;-71
2022/05/26 13:24:55;;;;;;;5.65;1.02;;;20.30;99.90;;;;;;5065648;28;20080;-71
2022/05/26 13:27:21;;;;;;;4.97;0.95;;;20.30;99.90;;;;;;5084484;28;20051;-71
2022/05/26 13:29:50;;;;;;;7.85;1.02;;;20.20;99.90;;;;;;5065492;28;20048;-71
2022/05/26 13:35:20;;;;;;;8.05;1.17;;;19.90;99.90;;;;;;5055235;28;20044;-72
2022/05/26 13:37:46;;;;;;;3.38;0.68;;;19.90;99.90;;;;;;5056398;28;20056;-71
2022/05/26 13:40:18;;;;;;;5.28;0.93;;;19.80;99.90;;;;;;5060317;28;20063;-71
2022/05/26 13:42:48;;;;;;;7.50;1.25;;;19.70;99.90;;;;;;5066426;28;20056;-71
2022/05/26 13:45:30;;;;;;;7.30;1.05;;;19.70;99.90;;;;;;5059565;28;20090;-71
2022/05/26 13:48:21;;;;;;;6.30;0.98;;;19.70;99.90;;;;;;5060759;28;20493;-71